Time;durP1;ratioP1;P1;durP2;ratioP2;P2;SDS_P1;SDS_P2;PMS_P1;PMS_P2;Temp;Humidity;BMP_temperature;BMP_pressure;BME280_temperature;BME280_humidity;BME280_pressure;Samples;Min_cycle;Max_cycle;Signal;HPM_P1;HPM_P2
2023/09/26 00:01:30;;;;;;;1.55;1.45;;;;;;;17.21;100.00;100983.66;5046852;28;20075;-87
2023/09/26 00:03:56;;;;;;;0.65;0.65;;;;;;;17.13;100.00;100963.47;5028871;28;20044;-86
2023/09/26 00:06:23;;;;;;;1.73;1.63;;;;;;;17.03;100.00;100950.38;5047826;28;20056;-87
2023/09/26 00:08:49;;;;;;;2.25;2.05;;;;;;;17.43;100.00;101001.84;5047595;28;20033;-87
2023/09/26 00:11:15;;;;;;;20.85;1.58;;;;;;;17.25;100.00;100971.19;5046209;28;20705;-85
2023/09/26 00:13:43;;;;;;;0.85;0.60;;;;;;;17.63;100.00;101052.75;5044329;28;20041;-85
2023/09/26 00:16:09;;;;;;;0.73;0.57;;;;;;;17.04;100.00;100949.50;5046662;28;20063;-87
2023/09/26 00:18:35;;;;;;;1.23;1.10;;;;;;;17.54;100.00;101049.41;5047330;28;20048;-88
2023/09/26 00:21:01;;;;;;;0.65;0.65;;;;;;;17.23;100.00;100996.88;5046978;28;20033;-85
2023/09/26 00:23:26;;;;;;;1.20;0.95;;;;;;;17.57;100.00;101063.47;5047537;28;20498;-86
2023/09/26 00:25:52;;;;;;;1.00;0.85;;;;;;;17.42;100.00;101042.50;5046428;28;20523;-85
2023/09/26 00:28:17;;;;;;;1.73;0.85;;;;;;;17.41;100.00;101023.06;5071072;28;20139;-86
2023/09/26 00:30:43;;;;;;;1.65;0.85;;;;;;;16.82;100.00;100926.91;5072615;28;20043;-84
2023/09/26 00:33:10;;;;;;;0.70;0.52;;;;;;;17.42;100.00;101034.56;5066083;28;20031;-86
2023/09/26 00:35:35;;;;;;;2.53;0.98;;;;;;;16.97;100.00;100957.56;5048816;28;20077;-87
2023/09/26 00:38:01;;;;;;;0.90;0.88;;;;;;;16.75;100.00;100926.13;5067037;28;20059;-85
2023/09/26 00:40:26;;;;;;;0.70;0.70;;;;;;;17.28;100.00;101021.56;5044459;28;20631;-85
2023/09/26 00:42:52;;;;;;;2.85;1.98;;;;;;;16.93;100.00;100955.88;5046774;28;20037;-84
2023/09/26 00:45:17;;;;;;;0.63;0.63;;;;;;;16.94;100.00;100960.28;5045079;28;20400;-85
2023/09/26 00:47:44;;;;;;;0.60;0.55;;;;;;;17.08;100.00;100980.34;5056488;28;20028;-86
2023/09/26 00:50:13;;;;;;;1.98;1.08;;;;;;;17.12;100.00;100989.13;5060803;28;20124;-85
2023/09/26 00:52:48;;;;;;;0.82;0.82;;;;;;;16.92;100.00;100955.00;5040958;28;20128;-85
2023/09/26 00:55:17;;;;;;;1.65;1.55;;;;;;;17.08;100.00;100984.78;5050769;28;20048;-85
2023/09/26 00:57:44;;;;;;;1.20;1.00;;;;;;;17.31;100.00;101013.53;5038877;28;20049;-85
2023/09/26 01:00:14;;;;;;;1.75;1.65;;;;;;;16.87;100.00;100941.81;5036059;28;20028;-85
2023/09/26 01:02:40;;;;;;;13.75;1.95;;;;;;;16.94;100.00;100941.72;5050090;28;20158;-85
2023/09/26 01:05:06;;;;;;;1.75;1.33;;;;;;;17.22;100.00;100972.13;5038843;28;20040;-86
2023/09/26 01:07:33;;;;;;;0.47;0.38;;;;;;;16.53;100.00;100843.47;5033928;28;20051;-84
2023/09/26 01:10:00;;;;;;;0.90;0.82;;;;;;;17.64;100.00;101021.78;5047602;28;20045;-84
2023/09/26 01:12:26;;;;;;;1.73;1.35;;;;;;;17.69;100.00;101031.38;5050136;28;20041;-86
2023/09/26 01:14:53;;;;;;;1.77;1.67;;;;;;;17.78;100.00;101033.00;5050661;28;20115;-84
2023/09/26 01:17:19;;;;;;;2.42;1.52;;;;;;;16.85;100.00;100879.13;5050319;28;20535;-86
2023/09/26 01:19:45;;;;;;;1.20;1.05;;;;;;;17.65;100.00;101018.19;5038876;28;20038;-85
2023/09/26 01:22:12;;;;;;;0.85;0.85;;;;;;;17.13;100.00;100929.88;5013208;28;20041;-85
2023/09/26 01:24:38;;;;;;;1.42;0.85;;;;;;;17.06;100.00;100913.19;5032686;28;20041;-85
2023/09/26 01:27:04;;;;;;;1.92;1.70;;;;;;;16.57;100.00;100831.91;5037578;28;20483;-85
2023/09/26 01:29:29;;;;;;;0.52;0.52;;;;;;;17.03;100.00;100905.31;5049609;28;20087;-87
2023/09/26 01:31:55;;;;;;;0.90;0.90;;;;;;;17.19;100.00;100924.47;5042331;28;20659;-85
2023/09/26 01:34:20;;;;;;;0.95;0.90;;;;;;;17.76;100.00;101018.00;5055379;28;20112;-85
2023/09/26 01:36:46;;;;;;;5.18;2.05;;;;;;;17.60;100.00;100982.94;5051016;28;20046;-86
2023/09/26 01:39:12;;;;;;;1.23;0.82;;;;;;;17.35;100.00;100926.81;5035565;28;20040;-84
2023/09/26 01:41:38;;;;;;;0.68;0.68;;;;;;;17.21;100.00;100892.63;5033911;28;20038;-87
2023/09/26 01:44:05;;;;;;;2.25;1.38;;;;;;;17.47;100.00;100953.97;5032376;28;20041;-85
2023/09/26 01:46:30;;;;;;;2.25;1.38;;;;;;;17.28;100.00;100919.00;5042375;28;20037;-85
2023/09/26 01:48:56;;;;;;;1.17;0.95;;;;;;;17.75;100.00;100990.59;5047562;28;20140;-86
2023/09/26 01:51:21;;;;;;;3.35;1.58;;;;;;;17.47;100.00;100951.34;5032647;28;20051;-85
2023/09/26 01:53:48;;;;;;;4.13;1.95;;;;;;;17.42;100.00;100929.31;5033627;28;20104;-85
2023/09/26 01:56:13;;;;;;;1.33;1.23;;;;;;;17.42;99.78;100917.81;5048589;28;20049;-86
2023/09/26 01:58:39;;;;;;;0.40;0.40;;;;;;;17.94;100.00;101009.69;5051813;28;20057;-85
2023/09/26 02:01:05;;;;;;;1.63;1.08;;;;;;;18.05;99.77;101026.28;5056787;28;20139;-86
2023/09/26 02:03:31;;;;;;;0.30;0.30;;;;;;;17.54;98.63;100925.56;5063301;28;20037;-86
2023/09/26 02:05:57;;;;;;;2.10;1.95;;;;;;;17.65;99.08;100941.22;5041851;28;20037;-84
2023/09/26 02:08:23;;;;;;;2.83;1.50;;;;;;;18.22;99.18;101041.00;5031764;28;20046;-87
2023/09/26 02:10:48;;;;;;;1.60;1.48;;;;;;;18.10;99.02;101019.09;5033090;28;20128;-86
2023/09/26 02:13:14;;;;;;;1.08;0.98;;;;;;;17.71;99.22;100955.25;5030967;28;20046;-85
2023/09/26 02:15:39;;;;;;;0.82;0.60;;;;;;;17.72;99.64;100961.44;5032337;28;20144;-85
2023/09/26 02:18:06;;;;;;;1.02;1.00;;;;;;;17.72;98.96;100948.16;5032795;28;20033;-86
2023/09/26 02:20:31;;;;;;;0.82;0.82;;;;;;;17.60;99.39;100938.69;5032059;28;20036;-86
2023/09/26 02:22:57;;;;;;;1.38;1.27;;;;;;;17.58;100.00;100934.31;5031358;28;20041;-85
2023/09/26 02:25:23;;;;;;;1.25;1.15;;;;;;;17.15;99.49;100847.66;5030464;28;20044;-86
2023/09/26 02:27:49;;;;;;;0.75;0.75;;;;;;;18.28;99.47;101048.81;5038868;28;20045;-86
2023/09/26 02:30:24;;;;;;;1.67;1.58;;;;;;;17.62;99.53;100928.91;5048338;28;20091;-86
2023/09/26 02:32:49;;;;;;;2.20;1.08;;;;;;;18.06;99.28;101011.22;5040731;28;21664;-86
2023/09/26 02:35:18;;;;;;;0.52;0.52;;;;;;;17.92;98.76;100955.75;5029106;28;20054;-85
2023/09/26 02:37:44;;;;;;;1.75;1.35;;;;;;;16.67;98.84;100761.09;5029223;28;20527;-86
2023/09/26 02:40:10;;;;;;;1.10;0.82;;;;;;;18.20;99.97;101025.06;5010841;28;20049;-85
2023/09/26 02:42:37;;;;;;;1.25;1.00;;;;;;;18.11;100.00;101028.78;5037476;28;20695;-85
2023/09/26 02:45:03;;;;;;;1.60;1.50;;;;;;;17.65;100.00;100952.75;5047711;28;20104;-83
2023/09/26 02:47:29;;;;;;;0.52;0.52;;;;;;;17.59;100.00;100950.22;5022377;28;20388;-85
2023/09/26 02:49:54;;;;;;;4.00;3.35;;;;;;;17.83;100.00;100967.44;5028059;28;20057;-85
2023/09/26 02:52:21;;;;;;;0.95;0.88;;;;;;;17.80;100.00;100975.44;5028261;28;20058;-86
2023/09/26 02:54:47;;;;;;;1.60;0.85;;;;;;;18.30;100.00;101073.56;5031344;28;20056;-85
2023/09/26 02:57:14;;;;;;;4.95;0.95;;;;;;;17.68;100.00;100954.47;5054432;28;20068;-85
2023/09/26 02:59:39;;;;;;;1.67;1.58;;;;;;;17.64;100.00;100942.16;5058237;28;20044;-86
2023/09/26 03:02:06;;;;;;;3.13;1.40;;;;;;;17.71;100.00;100957.03;5037580;28;20070;-85
2023/09/26 03:04:31;;;;;;;2.80;1.83;;;;;;;17.16;100.00;100868.84;5031518;28;20032;-84
2023/09/26 03:06:57;;;;;;;1.75;1.13;;;;;;;17.66;100.00;100943.00;5054911;28;20381;-85
2023/09/26 03:09:22;;;;;;;2.85;1.98;;;;;;;17.98;100.00;101015.81;5058094;28;20040;-84
2023/09/26 03:11:47;;;;;;;2.90;2.00;;;;;;;17.73;100.00;100966.72;5062538;28;20032;-85
2023/09/26 03:14:13;;;;;;;0.68;0.63;;;;;;;18.17;100.00;101050.81;5051615;28;20056;-86
2023/09/26 03:16:38;;;;;;;0.35;0.35;;;;;;;18.16;100.00;101047.28;5017222;28;20608;-87
2023/09/26 03:19:06;;;;;;;1.20;1.13;;;;;;;18.24;100.00;101069.28;5028697;28;20045;-84
2023/09/26 03:21:31;;;;;;;3.35;1.85;;;;;;;17.62;100.00;100962.53;5028899;28;20152;-83
2023/09/26 03:23:57;;;;;;;3.65;1.48;;;;;;;17.44;100.00;100927.53;5036329;28;20096;-85
2023/09/26 03:26:22;;;;;;;2.20;2.03;;;;;;;17.81;100.00;100993.13;5044612;28;20502;-85
2023/09/26 03:28:48;;;;;;;1.10;1.00;;;;;;;18.18;100.00;101061.41;5037633;28;20053;-86
2023/09/26 03:31:13;;;;;;;1.08;1.00;;;;;;;17.58;100.00;100953.75;5026868;28;20045;-86
2023/09/26 03:33:39;;;;;;;0.65;0.63;;;;;;;17.47;100.00;100946.03;5027778;28;20049;-86
2023/09/26 03:36:05;;;;;;;2.55;2.03;;;;;;;17.75;100.00;100995.91;5027845;28;20029;-86
2023/09/26 03:38:31;;;;;;;0.63;0.52;;;;;;;17.68;100.00;100962.44;5034873;28;20125;-86
2023/09/26 03:41:01;;;;;;;0.60;0.60;;;;;;;18.09;100.00;101051.00;5048622;28;20056;-85
2023/09/26 03:43:27;;;;;;;1.02;0.98;;;;;;;18.14;100.00;101050.00;5048359;28;20049;-85
2023/09/26 03:46:08;;;;;;;3.08;2.30;;;;;;;18.22;100.00;101072.88;5028304;28;20067;-88
2023/09/26 03:48:35;;;;;;;0.95;0.88;;;;;;;18.18;100.00;101064.06;5047901;28;20500;-85
2023/09/26 03:51:14;;;;;;;1.27;1.17;;;;;;;17.51;100.00;100957.44;5026750;28;20123;-86
2023/09/26 03:53:41;;;;;;;0.50;0.50;;;;;;;17.54;100.00;100970.66;5015248;28;20044;-86
2023/09/26 03:56:07;;;;;;;1.08;0.88;;;;;;;18.13;100.00;101069.47;5031934;28;20081;-86
2023/09/26 03:58:34;;;;;;;1.30;1.17;;;;;;;18.07;100.00;101071.38;5036135;28;20483;-85
2023/09/26 04:01:15;;;;;;;1.85;1.75;;;;;;;18.00;100.00;101062.66;5038545;28;20049;-86
2023/09/26 04:03:41;;;;;;;1.17;1.10;;;;;;;17.63;100.00;100991.72;5037423;28;20068;-86
2023/09/26 04:06:07;;;;;;;3.38;3.03;;;;;;;17.78;100.00;101027.69;5050329;28;20032;-86
2023/09/26 04:08:33;;;;;;;1.05;0.85;;;;;;;17.44;100.00;100969.97;5060488;28;20029;-86
2023/09/26 04:10:58;;;;;;;1.00;0.98;;;;;;;17.96;100.00;101065.41;5056128;28;20044;-85
2023/09/26 04:13:24;;;;;;;2.25;1.45;;;;;;;16.96;100.00;100887.78;5025852;28;20091;-86
2023/09/26 04:15:50;;;;;;;2.50;2.30;;;;;;;17.54;100.00;100991.91;5009526;28;20069;-86
2023/09/26 04:18:16;;;;;;;0.82;0.68;;;;;;;17.40;100.00;100970.06;5026879;28;20029;-86
2023/09/26 04:20:43;;;;;;;0.73;0.68;;;;;;;17.62;100.00;100986.44;5027416;28;20041;-85
2023/09/26 04:23:08;;;;;;;0.52;0.52;;;;;;;18.18;100.00;101090.66;5027087;28;20046;-84
2023/09/26 04:25:34;;;;;;;3.20;2.92;;;;;;;17.88;100.00;101042.53;5026635;28;20049;-86
2023/09/26 04:28:00;;;;;;;0.20;0.20;;;;;;;17.63;100.00;101006.75;5039002;28;20123;-87
2023/09/26 04:30:26;;;;;;;1.02;0.65;;;;;;;17.08;100.00;100919.34;5046102;28;20040;-88
2023/09/26 04:32:51;;;;;;;1.13;1.00;;;;;;;17.58;100.00;100993.56;5063539;28;20036;-87
2023/09/26 04:35:17;;;;;;;0.50;0.43;;;;;;;17.30;100.00;100938.41;5046952;28;20687;-86
2023/09/26 04:37:42;;;;;;;3.55;2.20;;;;;;;18.00;100.00;101065.31;5046155;28;20045;-86
2023/09/26 04:40:11;;;;;;;0.85;0.60;;;;;;;17.46;100.00;100964.63;5036667;28;20445;-86
2023/09/26 04:42:41;;;;;;;1.30;1.20;;;;;;;17.66;100.00;100985.47;5027210;28;20068;-87
2023/09/26 04:45:08;;;;;;;0.85;0.77;;;;;;;17.98;100.00;101053.88;5007784;28;20033;-86
2023/09/26 04:47:34;;;;;;;0.90;0.85;;;;;;;18.16;100.00;101084.47;5036218;28;20037;-86
2023/09/26 04:49:59;;;;;;;1.27;0.93;;;;;;;17.73;100.00;101011.84;5033796;28;20128;-83
2023/09/26 04:52:25;;;;;;;2.28;2.05;;;;;;;17.67;100.00;100987.19;5026863;28;20066;-86
2023/09/26 04:54:53;;;;;;;1.50;0.82;;;;;;;17.97;100.00;101035.31;5028240;28;20133;-85
2023/09/26 04:57:18;;;;;;;4.40;1.98;;;;;;;18.29;100.00;101087.78;5033046;28;20060;-86
2023/09/26 04:59:44;;;;;;;0.75;0.75;;;;;;;17.80;100.00;101006.44;5048774;28;20116;-88
2023/09/26 05:02:09;;;;;;;0.38;0.35;;;;;;;18.39;100.00;101097.28;5063105;28;20392;-87
2023/09/26 05:04:35;;;;;;;3.63;1.55;;;;;;;18.32;100.00;101083.25;5066960;28;20040;-87
2023/09/26 05:07:00;;;;;;;1.33;1.23;;;;;;;18.41;100.00;101089.28;5067324;28;20051;-86
2023/09/26 05:09:26;;;;;;;3.00;1.65;;;;;;;18.54;100.00;101091.66;5047753;28;20110;-86
2023/09/26 05:11:51;;;;;;;1.13;0.95;;;;;;;18.53;100.00;101081.03;5046922;28;20469;-86
2023/09/26 05:14:17;;;;;;;2.05;1.90;;;;;;;18.70;100.00;101123.19;5046698;28;20049;-85
2023/09/26 05:16:42;;;;;;;1.10;0.98;;;;;;;18.20;100.00;101022.41;5046233;28;20409;-87
2023/09/26 05:19:08;;;;;;;1.85;1.67;;;;;;;18.88;100.00;101129.94;5048019;28;20056;-86
2023/09/26 05:21:33;;;;;;;1.58;0.93;;;;;;;18.69;99.92;101084.25;5063592;28;20044;-85
2023/09/26 05:23:59;;;;;;;0.65;0.65;;;;;;;19.04;98.60;101138.44;5047246;28;20264;-87
2023/09/26 05:26:25;;;;;;;4.72;2.83;;;;;;;18.65;97.24;101056.84;5047747;28;20048;-86
2023/09/26 05:28:50;;;;;;;2.05;1.08;;;;;;;18.61;97.00;101025.91;5064627;28;20433;-85
2023/09/26 05:31:17;;;;;;;1.13;0.93;;;;;;;19.03;95.67;101089.66;5065594;28;20099;-86
2023/09/26 05:33:43;;;;;;;2.75;1.83;;;;;;;18.64;95.56;101004.59;5065922;28;20070;-85
2023/09/26 05:36:09;;;;;;;2.15;1.98;;;;;;;19.45;93.89;101117.91;5058430;28;20040;-86
2023/09/26 05:38:34;;;;;;;1.55;1.45;;;;;;;19.62;92.30;101123.69;5048055;28;20116;-87
2023/09/26 05:41:01;;;;;;;2.40;1.75;;;;;;;19.45;92.30;101091.28;5050573;28;20500;-86
2023/09/26 05:43:28;;;;;;;2.40;1.40;;;;;;;19.72;91.22;101135.00;5051105;28;20048;-85
2023/09/26 05:45:54;;;;;;;2.75;2.55;;;;;;;19.98;91.13;101156.47;5045931;28;20041;-86
2023/09/26 05:48:19;;;;;;;1.50;1.30;;;;;;;19.76;88.93;101088.72;5064640;28;20471;-85
2023/09/26 05:50:45;;;;;;;2.92;1.73;;;;;;;20.22;86.75;101127.41;5051934;28;20087;-85
2023/09/26 05:53:11;;;;;;;3.65;2.40;;;;;;;19.92;85.18;101052.75;5049656;28;20050;-86
2023/09/26 05:55:38;;;;;;;2.90;1.60;;;;;;;19.99;81.36;101029.47;5059993;28;20052;-86
2023/09/26 05:58:05;;;;;;;2.35;2.17;;;;;;;20.66;81.23;101123.47;5068933;28;20048;-86
2023/09/26 06:00:30;;;;;;;2.60;1.60;;;;;;;20.43;79.98;101056.59;5065559;28;20041;-86
2023/09/26 06:02:56;;;;;;;1.02;0.85;;;;;;;20.84;78.80;101098.00;5071775;28;20613;-85
2023/09/26 06:05:24;;;;;;;6.28;5.78;;;;;;;21.01;79.19;101123.28;5054656;28;20080;-87
2023/09/26 06:07:52;;;;;;;1.33;0.88;;;;;;;21.19;78.97;101145.81;5049745;28;20100;-84
2023/09/26 06:10:19;;;;;;;1.05;0.90;;;;;;;20.48;78.83;101014.66;5031819;28;20051;-86
2023/09/26 06:12:44;;;;;;;3.63;2.40;;;;;;;21.35;79.10;101141.72;5031240;28;20049;-86
2023/09/26 06:15:10;;;;;;;2.17;1.98;;;;;;;21.25;77.30;101122.47;5049328;28;20511;-87
2023/09/26 06:17:40;;;;;;;1.17;0.82;;;;;;;21.54;76.85;101147.38;5050752;28;20083;-86
2023/09/26 06:20:08;;;;;;;5.32;4.15;;;;;;;21.44;77.13;101136.13;5050068;28;20099;-86
2023/09/26 06:22:34;;;;;;;0.70;0.65;;;;;;;21.64;76.41;101163.97;5031284;28;20132;-85
2023/09/26 06:25:00;;;;;;;1.48;1.17;;;;;;;21.41;75.45;101125.53;5049366;28;20131;-88
2023/09/26 06:27:26;;;;;;;0.50;0.50;;;;;;;21.65;75.81;101147.88;5041725;28;20410;-88
2023/09/26 06:29:52;;;;;;;0.90;0.63;;;;;;;21.16;75.94;101049.84;5073622;28;20040;-86
2023/09/26 06:32:17;;;;;;;2.17;2.00;;;;;;;21.61;75.39;101126.66;5044838;28;20061;-87
2023/09/26 06:34:44;;;;;;;10.43;1.73;;;;;;;21.58;75.71;101119.63;5049910;28;20041;-88
2023/09/26 06:37:09;;;;;;;1.77;1.67;;;;;;;21.54;75.73;101106.44;5049218;28;20092;-87
2023/09/26 06:39:36;;;;;;;0.82;0.45;;;;;;;21.69;76.35;101130.81;5049819;28;20456;-87
2023/09/26 06:42:02;;;;;;;2.05;0.73;;;;;;;21.27;75.65;101042.34;5050957;28;20152;-85
2023/09/26 06:44:28;;;;;;;2.58;1.63;;;;;;;21.76;75.34;101138.63;5050622;28;20063;-87
2023/09/26 06:46:54;;;;;;;2.00;1.90;;;;;;;21.65;75.72;101105.13;5050319;28;20118;-87
2023/09/26 06:49:20;;;;;;;2.05;1.35;;;;;;;21.71;75.53;101101.38;5062768;28;20126;-85
2023/09/26 06:51:47;;;;;;;0.85;0.85;;;;;;;21.99;75.29;101132.47;5048665;28;20698;-87
2023/09/26 06:54:13;;;;;;;1.55;1.23;;;;;;;21.73;76.00;101086.19;5041270;28;20032;-85
2023/09/26 06:56:38;;;;;;;0.30;0.30;;;;;;;21.65;73.89;101073.06;5066734;28;20056;-86
2023/09/26 06:59:04;;;;;;;0.52;0.52;;;;;;;21.69;73.90;101065.84;5067878;28;20129;-86
2023/09/26 07:01:30;;;;;;;1.77;1.58;;;;;;;21.60;71.85;101069.69;5049538;28;20044;-88
2023/09/26 07:03:55;;;;;;;0.90;0.90;;;;;;;22.20;72.40;101150.41;5068886;28;20083;-87
2023/09/26 07:06:20;;;;;;;1.50;1.27;;;;;;;22.23;71.95;101154.78;5067217;28;20048;-85
2023/09/26 07:08:46;;;;;;;1.15;0.95;;;;;;;22.12;72.08;101139.09;5069802;28;20048;-87
2023/09/26 07:11:12;;;;;;;0.28;0.28;;;;;;;21.62;72.17;101043.81;5044014;28;20041;-86
2023/09/26 07:13:37;;;;;;;0.80;0.60;;;;;;;21.92;72.29;101075.69;5055646;28;20060;-87
2023/09/26 07:16:05;;;;;;;0.47;0.47;;;;;;;22.54;73.19;101171.44;5058954;28;20064;-88
2023/09/26 07:18:36;;;;;;;1.55;1.45;;;;;;;22.51;72.65;101155.50;5058032;28;20056;-85
2023/09/26 07:21:06;;;;;;;0.98;0.63;;;;;;;22.01;71.23;101086.06;5057426;28;20094;-86
2023/09/26 07:23:33;;;;;;;1.55;0.57;;;;;;;22.53;71.00;101179.53;5076082;28;20036;-86
2023/09/26 07:26:12;;;;;;;1.05;0.95;;;;;;;22.63;70.67;101172.91;5044647;28;20683;-87
2023/09/26 07:28:39;;;;;;;0.47;0.45;;;;;;;22.14;70.75;101083.78;5045304;28;20063;-85
2023/09/26 07:31:05;;;;;;;2.50;2.30;;;;;;;22.28;70.89;101076.16;5030167;28;20563;-86
2023/09/26 07:33:32;;;;;;;0.75;0.50;;;;;;;22.43;70.66;101089.84;5047627;28;20055;-86
2023/09/26 07:35:58;;;;;;;0.70;0.70;;;;;;;22.30;69.88;101055.56;5030729;28;20120;-87
2023/09/26 07:38:25;;;;;;;2.28;1.52;;;;;;;23.06;69.89;101170.38;5030356;28;20128;-84
2023/09/26 07:40:51;;;;;;;0.73;0.73;;;;;;;22.95;68.28;101141.34;5048311;28;20049;-87
2023/09/26 07:43:16;;;;;;;0.85;0.82;;;;;;;22.69;68.34;101088.88;5059488;28;20559;-86
2023/09/26 07:45:42;;;;;;;0.95;0.93;;;;;;;23.22;66.68;101178.69;5048309;28;20098;-87
2023/09/26 07:48:07;;;;;;;2.70;2.05;;;;;;;23.23;64.25;101159.00;5068116;28;20477;-88
2023/09/26 07:50:33;;;;;;;0.95;0.75;;;;;;;22.84;64.07;101076.66;5051767;28;20054;-86
2023/09/26 07:53:01;;;;;;;2.47;1.15;;;;;;;23.24;63.41;101156.25;5047941;28;20080;-86
2023/09/26 07:55:26;;;;;;;0.95;0.93;;;;;;;23.38;62.97;101169.06;5055829;28;20052;-85
2023/09/26 07:57:52;;;;;;;2.88;2.67;;;;;;;23.42;63.32;101173.38;5041740;28;20049;-86
2023/09/26 08:00:17;;;;;;;2.63;1.83;;;;;;;23.19;62.76;101126.13;5027810;28;20393;-86
2023/09/26 08:02:43;;;;;;;0.40;0.40;;;;;;;23.46;61.66;101158.03;5028592;28;20061;-87
2023/09/26 08:05:09;;;;;;;2.10;0.73;;;;;;;23.32;60.37;101142.53;5028350;28;20076;-85
2023/09/26 08:07:34;;;;;;;1.90;1.65;;;;;;;23.08;59.61;101083.72;5027981;28;20164;-86
2023/09/26 08:10:03;;;;;;;4.10;2.45;;;;;;;23.04;58.87;101068.72;5028423;28;20041;-87
2023/09/26 08:12:29;;;;;;;1.48;0.93;;;;;;;23.67;58.04;101161.63;5028208;28;20087;-87
2023/09/26 08:14:58;;;;;;;1.50;1.20;;;;;;;23.29;57.68;101084.63;5028488;28;20460;-86
2023/09/26 08:17:24;;;;;;;1.45;1.35;;;;;;;23.82;57.25;101141.38;5014365;28;20061;-86
2023/09/26 08:19:50;;;;;;;1.38;1.00;;;;;;;23.56;57.73;101087.06;5037702;28;20476;-87
2023/09/26 08:22:15;;;;;;;3.60;1.85;;;;;;;23.20;56.29;101042.16;5031141;28;20051;-86
2023/09/26 08:24:42;;;;;;;1.15;1.05;;;;;;;23.62;55.33;101093.97;5046708;28;20056;-87
2023/09/26 08:27:10;;;;;;;2.88;1.27;;;;;;;23.62;55.58;101091.28;5029647;28;20036;-87
2023/09/26 08:29:35;;;;;;;1.00;0.68;;;;;;;23.72;55.14;101085.47;5048287;28;20097;-87
2023/09/26 08:32:01;;;;;;;0.70;0.65;;;;;;;23.48;53.86;101043.66;5029155;28;20104;-87
2023/09/26 08:34:26;;;;;;;3.08;1.38;;;;;;;24.16;53.65;101154.16;5048570;28;20142;-88
2023/09/26 08:36:52;;;;;;;2.03;1.88;;;;;;;24.33;53.35;101140.88;5030579;28;20044;-86
2023/09/26 08:39:18;;;;;;;1.27;0.88;;;;;;;24.18;52.41;101134.34;5039613;28;20124;-86
2023/09/26 08:41:45;;;;;;;5.32;1.60;;;;;;;24.18;51.81;101086.09;5028973;28;20115;-86
2023/09/26 08:44:12;;;;;;;2.55;2.25;;;;;;;24.00;51.53;101044.06;5031307;28;20535;-85
2023/09/26 08:46:41;;;;;;;1.58;1.48;;;;;;;24.28;51.05;101117.84;5030951;28;20081;-84
2023/09/26 08:49:09;;;;;;;0.25;0.25;;;;;;;24.40;51.01;101133.41;5058782;28;20052;-87
2023/09/26 08:51:34;;;;;;;26.67;1.20;;;;;;;23.99;50.89;101040.47;5009116;28;20045;-86
2023/09/26 08:54:02;;;;;;;1.80;1.05;;;;;;;24.51;50.49;101133.78;5027089;28;20044;-86
2023/09/26 08:56:28;;;;;;;2.38;1.80;;;;;;;24.69;49.79;101125.81;5010212;28;20452;-86
2023/09/26 08:58:55;;;;;;;3.30;1.92;;;;;;;24.05;49.17;101027.75;5045609;28;20055;-88
2023/09/26 09:01:20;;;;;;;0.10;0.10;;;;;;;25.05;49.06;101144.66;5046749;28;20103;-86
2023/09/26 09:03:46;;;;;;;2.45;1.92;;;;;;;25.00;48.29;101131.44;5047018;28;20451;-89
2023/09/26 09:06:13;;;;;;;0.98;0.85;;;;;;;24.20;48.45;101014.47;5046748;28;20484;-86
2023/09/26 09:08:39;;;;;;;1.05;0.60;;;;;;;24.94;48.44;101131.75;5046966;28;20037;-87
2023/09/26 09:11:05;;;;;;;0.93;0.93;;;;;;;24.92;47.67;101101.44;5028735;28;20054;-87
2023/09/26 09:13:35;;;;;;;8.80;1.08;;;;;;;25.33;47.19;101141.50;5047304;28;20536;-87
2023/09/26 09:16:13;;;;;;;1.05;0.60;;;;;;;25.40;46.61;101137.59;5056472;28;20097;-85
2023/09/26 09:18:47;;;;;;;3.78;3.25;;;;;;;24.70;46.62;101023.78;5070536;28;20544;-86
2023/09/26 09:21:19;;;;;;;2.25;0.98;;;;;;;25.34;46.18;101121.75;5049561;28;20048;-86
2023/09/26 09:23:46;;;;;;;0.68;0.68;;;;;;;25.16;45.63;101093.09;5051547;28;20508;-86
2023/09/26 09:26:12;;;;;;;5.20;1.67;;;;;;;24.92;45.46;101061.16;5048743;28;20519;-86
2023/09/26 09:28:38;;;;;;;1.35;1.15;;;;;;;25.32;45.20;101130.84;5071431;28;20131;-89
2023/09/26 09:31:03;;;;;;;0.45;0.45;;;;;;;25.28;45.08;101109.50;5070944;28;20163;-85
2023/09/26 09:33:31;;;;;;;1.85;1.70;;;;;;;25.43;45.23;101104.31;5071858;28;20041;-86
2023/09/26 09:35:57;;;;;;;0.50;0.50;;;;;;;25.47;44.36;101122.00;5059615;28;20033;-86
2023/09/26 09:38:23;;;;;;;2.30;1.60;;;;;;;25.38;44.20;101104.56;5053548;28;20033;-85
2023/09/26 09:40:48;;;;;;;1.38;1.10;;;;;;;25.36;43.55;101105.56;5065022;28;20103;-84
2023/09/26 09:43:14;;;;;;;1.35;1.02;;;;;;;25.17;43.17;101050.06;5046585;28;20063;-88
2023/09/26 09:45:41;;;;;;;0.73;0.73;;;;;;;25.68;42.56;101087.78;5063795;28;20033;-87
2023/09/26 09:48:09;;;;;;;0.93;0.93;;;;;;;26.09;42.28;101122.41;5071020;28;20025;-85
2023/09/26 09:50:39;;;;;;;0.20;0.20;;;;;;;25.66;42.18;101103.09;5060104;28;20396;-87
2023/09/26 09:53:05;;;;;;;1.77;1.67;;;;;;;25.49;42.21;101064.53;5052900;28;20109;-86
2023/09/26 09:55:38;;;;;;;3.53;1.90;;;;;;;25.70;42.15;101054.47;5061807;28;20132;-88
2023/09/26 09:58:09;;;;;;;1.10;1.00;;;;;;;25.82;41.81;101066.41;5051158;28;20398;-85
2023/09/26 10:00:40;;;;;;;4.40;0.60;;;;;;;26.37;41.92;101146.00;5052968;28;20087;-85
2023/09/26 10:03:06;;;;;;;1.10;1.00;;;;;;;26.25;41.55;101135.91;5058848;28;20033;-86
2023/09/26 10:05:36;;;;;;;0.77;0.57;;;;;;;26.27;41.00;101145.63;5031380;28;20045;-86
2023/09/26 10:08:05;;;;;;;0.57;0.52;;;;;;;26.37;41.52;101124.47;5030321;28;20426;-87
2023/09/26 10:10:32;;;;;;;4.47;0.90;;;;;;;26.50;40.91;101135.41;5030731;28;20105;-87
2023/09/26 10:12:58;;;;;;;0.40;0.40;;;;;;;26.05;40.26;101050.88;5022966;28;20098;-86
2023/09/26 10:15:24;;;;;;;0.70;0.70;;;;;;;26.41;40.28;101114.38;5048991;28;20123;-88
2023/09/26 10:17:49;;;;;;;0.98;0.88;;;;;;;26.09;40.63;101088.28;5039361;28;20120;-87
2023/09/26 10:20:16;;;;;;;1.48;0.85;;;;;;;26.49;40.37;101141.75;5011142;28;20038;-88
2023/09/26 10:22:46;;;;;;;0.30;0.30;;;;;;;26.65;40.67;101091.53;5029576;28;20045;-86
2023/09/26 10:25:18;;;;;;;9.57;1.38;;;;;;;26.26;39.43;101051.53;5036417;28;20044;-85
2023/09/26 10:27:50;;;;;;;2.60;2.38;;;;;;;26.09;39.08;101041.69;5033732;28;20077;-86
2023/09/26 10:30:18;;;;;;;0.52;0.52;;;;;;;26.69;39.56;101109.25;5048911;28;20029;-86
2023/09/26 10:32:45;;;;;;;1.45;1.23;;;;;;;26.60;39.04;101111.56;5032549;28;20029;-88
2023/09/26 10:35:13;;;;;;;0.75;0.65;;;;;;;27.02;38.36;101134.34;5029254;28;20136;-85
2023/09/26 10:37:48;;;;;;;11.48;1.38;;;;;;;26.41;39.21;101061.44;5030325;28;20049;-85
2023/09/26 10:40:14;;;;;;;2.58;1.83;;;;;;;27.22;38.58;101107.16;5030393;28;20037;-87
2023/09/26 10:42:47;;;;;;;2.65;2.40;;;;;;;27.20;37.89;101084.81;5029912;28;20069;-88
2023/09/26 10:45:13;;;;;;;1.05;1.00;;;;;;;26.92;38.97;100988.53;5030608;28;20028;-87
2023/09/26 10:47:40;;;;;;;0.52;0.30;;;;;;;26.80;37.90;101010.81;5051754;28;20032;-86
2023/09/26 10:50:12;;;;;;;0.85;0.55;;;;;;;27.28;38.27;101109.50;5039912;28;20080;-87
2023/09/26 10:52:46;;;;;;;0.45;0.45;;;;;;;27.50;38.00;101079.41;5030724;28;20054;-86
2023/09/26 10:55:14;;;;;;;1.05;0.95;;;;;;;27.89;37.98;101099.56;5015214;28;20133;-87
2023/09/26 10:57:40;;;;;;;0.20;0.20;;;;;;;27.61;36.91;101019.44;5051250;28;20114;-88
2023/09/26 11:00:11;;;;;;;0.40;0.32;;;;;;;27.80;36.37;101027.25;5046552;28;20045;-86
2023/09/26 11:02:37;;;;;;;3.97;1.45;;;;;;;27.58;35.97;101066.34;5034408;28;20056;-87
2023/09/26 11:05:13;;;;;;;1.80;1.17;;;;;;;27.64;36.61;101083.97;5034386;28;20128;-86
2023/09/26 11:07:41;;;;;;;1.10;0.68;;;;;;;27.50;36.16;101082.09;5033348;28;20052;-87
2023/09/26 11:10:15;;;;;;;1.40;1.23;;;;;;;27.40;35.47;101010.00;5055228;28;20049;-86
2023/09/26 11:12:41;;;;;;;2.03;1.88;;;;;;;27.91;35.16;101097.63;5057228;28;20098;-86
2023/09/26 11:15:07;;;;;;;0.68;0.68;;;;;;;28.05;35.84;101094.09;5055884;28;20041;-86
2023/09/26 11:17:36;;;;;;;0.85;0.68;;;;;;;28.04;35.41;101065.34;5049957;28;20032;-87
2023/09/26 11:20:06;;;;;;;1.50;0.85;;;;;;;28.13;35.47;101089.06;5019992;28;20052;-86